Relevés horaires Semmerzake (Belgique)


Relevés horaires à Semmerzake - Lundi 27 Avr. 2026
Heure UTC1 Température [°C] Vent [km/h] Hum. [%] Pres.4 [hPa] Visi. [Km] Nébu. [octa] Préc.5 [mm] Cond.
2m. Res. Ros. Dir.2 Vit. Moy. Raf.3
23:00 12.0 11.5 2.6 NE 7.4 -- 13.0 53 1021(-0.1/3h) >70 -- -- --
22:00 12.3 12.2 2.7 NNE 5.6 -- 11.1 52 1020.7(-0.1/3h) >70 -- -- --
21:00 12.5 12.5 5.1 N 3.7 -- 13.0 61 1020.7(0.0/3h) 15 -- -- --
20:00 12.5 12.4 5.2 N 5.6 -- 9.3 61 1021.1(0.2/3h) >70 -- -- --
19:00 13.4 13.1 3.3 N 7.4 -- 11.1 50 1021(0.0/3h) >70 -- -- --
18:00 14.8 14.5 3.9 N 9.3 -- 14.8 48 1020.7(-0.4/3h) >70 -- -- --
17:00 16.8 16.8 4.5 N 9.3 -- 14.8 44 1020.7(-1.1/3h) >70 -- -- --
16:00 18.5 18.5 1.6 N 7.4 -- 13.0 32 1020.8(-1.5/3h) >70 -- -- --
15:00 19.3 19.3 -1.3 N 5.6 -- 11.1 25 1021.2(-1.7/3h) >70 -- -- --
14:00 19.1 19.1 0.1 N 5.6 -- 11.1 28 1021.7(-1.5/3h) >70 -- -- --
13:00 18.8 18.8 1.1 N 3.7 -- 11.1 30 1022.5(-1.3/3h) >70 -- -- --
12:00 17.3 17.3 0.5 E 3.7 -- 11.1 32 1023(-1.0/3h) >70 -- -- --
11:00 16.5 16.5 1.0 E 5.6 -- 11.1 35 1023.5(-0.8/3h) >70 -- -- --
10:00 15.7 15.7 2.6 E 5.6 -- 9.3 41 1023.8(-0.4/3h) >70 -- -- --
09:00 13.6 13.6 3.7 NE 3.7 -- 9.3 51 1024(-0.3/3h) >70 -- -- --
08:00 11.6 11.6 5.2 NNO 1.9 -- 5.6 65 1024.4(0.4/3h) >70 -- -- --
07:00 9.1 9.1 4.9 NNO 3.7 -- 5.6 75 1024.4(0.5/3h) 16 -- -- --
06:00 7.1 7.1 5.1 NNO 1.9 -- 5.6 87 1024.5(0.5/3h) 45 -- -- --
05:00 5.6 5.6 4.2 NE 3.7 -- 3.7 91 1023.8(0.0/3h) 40 -- -- --
04:00 6.2 6.2 4.5 NNO 1.9 -- 3.7 89 1023.8(-0.2/3h) 40 -- -- --
03:00 6.5 6.5 5.1 NNO 1.9 -- 5.6 91 1024(-0.5/3h) 30 -- -- --
02:00 6.7 6.7 5.2 NNO 1.9 -- 5.6 90 1024(-0.5/3h) 35 -- -- --
01:00 7.3 7.3 5.2 NNO 1.9 -- 3.7 86 1024.2(-0.1/3h) 40 -- -- --
00:00 7.5 7.5 5.9 NNO 1.9 -- 9.3 90 1024.4(0.1/3h) 40 -- -- --

1 Coordinated Universal Time. Actuellement il est 01:00 locale et 23:00 UTC.

2 Le vent souffle depuis la direction indiquée vers la direction oposée.

3 Les rafales max. sont disponible 40 min après l'heure du relevé.

4 Pour les stations d'altitude (plus de 600m) le géopotentiel du niveau le plus proche de la pression obligatoire est indiqué.

5 Les stations disposant d'un diffuseur peuvent indiquer "trace". Cela signifie que des précipitations ont touchés le sol mais que la quantité est inférieure à 0.1 mm.

Récapitulatif de la journée
Température [°C] Vent [km/h] Ensoleillement4 [h] Precipitations totale5 [mm] Pression [Hpa]
Min1 Max.2 Moy.3 Max. Min Max.
5.4 19.9 0 14.8 0 h 0 min 0 1020.7 1024.5

1 Température minimale relevée entre 18:00 UTC la veille et 18:00 UTC le jour donné.

2 Température maximale relevée entre 06:00 UTC le jour donné et 06:00 UTC le lendemain.

3 Vent moyen de la journée basé sur les relevés horaires.

4 Ensoleillement en heures relevé entre 06:00 UTC la veille et 06:00 UTC le jour donné.

5 Précipitations totales tombées entre 06:00 UTC la jour donné et 06:00 UTC le lendemain.

Graphiques horaires